^^
Saratoga-Weather Station Historical Data
Daily Summary for June 28, 2020 Units:  Metric    English   Both
Daily Weekly Monthly Yearly Custom
  High: Low: Average:
Temperature: 21.4 °C 12.8 °C 18 °C
Dew Point: 15.9 °C 9.7 °C 13 °C
Humidity: 93% 51% 74%
Wind Speed: 19.5km/h 0km/h 3.2km/h
Wind Gust: 25.7km/h - -
Wind- - WSW
Pressure: 1006.4 hPa 1000.7 hPa -
Precipitation: 5.3 mm    
Historical Graphs
 
 
Tabular Data for June 28, 2020
Time Temperature Dew Point Pressure Wind Wind Speed Wind Gust Humidity Rainfall Rate (Hourly) solar
00:02 20.8 °C 12.7 °C 1006.1 hPa Calm   3.2 km/h 60% 0.0 mm 0 W/m2
00:07 20.9 °C 12.6 °C 1005.8 hPa SSW 1.4 km/h 8 km/h 59% 0.0 mm 0 W/m2
00:12 20.9 °C 12.8 °C 1005.8 hPa SSW 3.2 km/h 3.2 km/h 60% 0.0 mm 0 W/m2
00:17 20.8 °C 13.3 °C 1005.8 hPa Calm   6.4 km/h 62% 0.0 mm 0 W/m2
00:22 20.6 °C 13.1 °C 1005.8 hPa ENE 3.2 km/h 3.2 km/h 62% 0.0 mm 0 W/m2
00:27 20.3 °C 12.8 °C 1005.8 hPa Calm   4.8 km/h 62% 0.0 mm 0 W/m2
00:32 20.2 °C 12.9 °C 1005.8 hPa East 4.7 km/h 9.7 km/h 63% 0.0 mm 0 W/m2
00:37 20.3 °C 12.8 °C 1005.8 hPa Calm   1.6 km/h 62% 0.0 mm 0 W/m2
00:43 20.3 °C 12.5 °C 1005.8 hPa NE 4.7 km/h 6.4 km/h 61% 0.0 mm 0 W/m2
00:48 20.4 °C 12.9 °C 1005.8 hPa Calm     62% 0.0 mm 0 W/m2
00:53 20.4 °C 13.6 °C 1005.8 hPa NNW 1.4 km/h 6.4 km/h 65% 0.0 mm 0 W/m2
00:58 20.2 °C 14.3 °C 1005.8 hPa West 4.7 km/h 4.8 km/h 69% 0.0 mm 0 W/m2
01:03 19.8 °C 13.7 °C 1006.1 hPa West 6.4 km/h 14.5 km/h 68% 0.0 mm 0 W/m2
01:08 19.8 °C 13.9 °C 1006.4 hPa WNW 11.1 km/h 19.3 km/h 69% 0.0 mm 0 W/m2
01:13 19.4 °C 14 °C 1006.4 hPa West 11.1 km/h 19.3 km/h 71% 0.0 mm 0 W/m2
01:18 18.9 °C 14.8 °C 1006.4 hPa WNW 7.9 km/h 16.1 km/h 77% 0.0 mm 0 W/m2
01:23 18.5 °C 15 °C 1006.1 hPa WSW 6.4 km/h 20.9 km/h 80% 0.0 mm 0 W/m2
01:28 18.2 °C 15.1 °C 1006.1 hPa West 4.7 km/h 9.7 km/h 82% 0.0 mm 0 W/m2
01:33 18.1 °C 15.2 °C 1006.1 hPa SW 3.2 km/h 12.9 km/h 83% 0.0 mm 0 W/m2
01:38 17.9 °C 15.2 °C 1006.1 hPa West 6.4 km/h 11.3 km/h 84% 0.0 mm 0 W/m2
01:43 17.8 °C 15.2 °C 1006.1 hPa West 6.4 km/h 9.7 km/h 85% 0.0 mm 0 W/m2
01:48 17.7 °C 15.3 °C 1005.8 hPa West 4.7 km/h 6.4 km/h 86% 0.0 mm 0 W/m2
01:53 17.7 °C 15.3 °C 1005.8 hPa WNW 1.4 km/h 9.7 km/h 86% 0.0 mm 0 W/m2
01:58 17.7 °C 15.3 °C 1005.8 hPa West 1.4 km/h 4.8 km/h 86% 0.0 mm 0 W/m2
02:03 17.7 °C 15.3 °C 1005.8 hPa Calm   9.7 km/h 86% 0.0 mm 0 W/m2
02:08 17.7 °C 15.5 °C 1005.8 hPa North 1.4 km/h 1.6 km/h 87% 0.2 mm 0 W/m2
02:13 17.7 °C 15.5 °C 1005.8 hPa WNW 1.4 km/h 3.2 km/h 87% 0.2 mm 0 W/m2
02:18 17.8 °C 15.6 °C 1005.4 hPa West 3.2 km/h 6.4 km/h 87% 0.2 mm 0 W/m2
02:23 17.8 °C 15.6 °C 1005.4 hPa Calm   3.2 km/h 87% 0.5 mm 0 W/m2
02:28 17.8 °C 15.6 °C 1005.4 hPa North 3.2 km/h 4.8 km/h 87% 0.5 mm 0 W/m2
02:33 17.8 °C 15.6 °C 1005.4 hPa Calm   1.6 km/h 87% 0.5 mm 0 W/m2
02:38 17.8 °C 15.6 °C 1005.4 hPa West 4.7 km/h 9.7 km/h 87% 0.5 mm 0 W/m2
02:43 17.9 °C 15.7 °C 1005.4 hPa ENE 1.4 km/h 3.2 km/h 87% 0.5 mm 0 W/m2
02:48 17.9 °C 15.7 °C 1005.4 hPa NW 1.4 km/h 3.2 km/h 87% 0.5 mm 0 W/m2
02:53 17.9 °C 15.7 °C 1005.8 hPa North 1.4 km/h 4.8 km/h 87% 0.5 mm 0 W/m2
02:58 17.9 °C 15.7 °C 1005.4 hPa NNW 4.7 km/h 6.4 km/h 87% 0.5 mm 0 W/m2
03:03 17.9 °C 15.7 °C 1005.4 hPa WNW 1.4 km/h 6.4 km/h 87% 0.5 mm 0 W/m2
03:08 17.9 °C 15.7 °C 1005.4 hPa WSW 3.2 km/h 9.7 km/h 87% 0.2 mm 0 W/m2
03:13 17.9 °C 15.7 °C 1005.4 hPa NNW 3.2 km/h 3.2 km/h 87% 0.2 mm 0 W/m2
03:18 17.9 °C 15.7 °C 1005.4 hPa WSW 1.4 km/h 3.2 km/h 87% 0.2 mm 0 W/m2
03:23 17.9 °C 15.7 °C 1005.8 hPa NW 4.7 km/h 6.4 km/h 87% 0.0 mm 0 W/m2
03:28 17.9 °C 15.9 °C 1005.8 hPa West 6.4 km/h 6.4 km/h 88% 0.0 mm 0 W/m2
03:33 17.9 °C 15.7 °C 1005.4 hPa West 1.4 km/h 11.3 km/h 87% 0.0 mm 0 W/m2
03:38 18 °C 15.8 °C 1005.8 hPa WSW 3.2 km/h 4.8 km/h 87% 0.0 mm 0 W/m2
03:43 17.9 °C 15.7 °C 1005.8 hPa WNW 4.7 km/h 9.7 km/h 87% 0.0 mm 0 W/m2
03:48 17.9 °C 15.7 °C 1005.8 hPa West 6.4 km/h 8 km/h 87% 0.0 mm 0 W/m2
03:53 18 °C 15.8 °C 1005.8 hPa NW 1.4 km/h 4.8 km/h 87% 0.0 mm 0 W/m2
03:58 17.9 °C 15.7 °C 1005.4 hPa WSW 3.2 km/h 9.7 km/h 87% 0.0 mm 0 W/m2
04:03 17.9 °C 15.7 °C 1005.8 hPa WNW 1.4 km/h 3.2 km/h 87% 0.0 mm 0 W/m2
04:08 17.8 °C 15.6 °C 1005.4 hPa Calm   9.7 km/h 87% 0.0 mm 0 W/m2
04:13 17.8 °C 15.6 °C 1005.4 hPa ENE 1.4 km/h 1.6 km/h 87% 0.0 mm 0 W/m2
04:18 17.6 °C 15.4 °C 1005.4 hPa ENE 3.2 km/h 4.8 km/h 87% 0.0 mm 0 W/m2
04:23 17.4 °C 15.4 °C 1005.4 hPa Calm   1.6 km/h 88% 0.0 mm 0 W/m2
04:28 17.3 °C 15.3 °C 1005.4 hPa Calm     88% 0.0 mm 0 W/m2
04:33 17.1 °C 15.1 °C 1005.4 hPa Calm     88% 0.0 mm 0 W/m2
04:38 16.9 °C 15.1 °C 1005.4 hPa Calm     89% 0.0 mm 0 W/m2
04:43 16.8 °C 15.1 °C 1005.4 hPa WSW 1.4 km/h 3.2 km/h 90% 0.0 mm 0 W/m2
04:48 16.7 °C 15.1 °C 1005.4 hPa WNW 1.4 km/h 3.2 km/h 90% 0.0 mm 0 W/m2
04:53 16.6 °C 15 °C 1005.4 hPa WNW 1.4 km/h 3.2 km/h 90% 0.0 mm 0 W/m2
04:58 16.6 °C 15 °C 1005.1 hPa West 1.4 km/h 4.8 km/h 90% 0.0 mm 0 W/m2
05:03 16.6 °C 15 °C 1005.1 hPa Calm   3.2 km/h 90% 0.0 mm 0 W/m2
05:08 16.4 °C 14.8 °C 1005.1 hPa Calm   1.6 km/h 90% 0.0 mm 0 W/m2
05:13 16.3 °C 14.8 °C 1005.1 hPa WSW 1.4 km/h 1.6 km/h 91% 0.0 mm 0 W/m2
05:18 16.3 °C 14.8 °C 1005.1 hPa West 4.7 km/h 11.3 km/h 91% 0.0 mm 0 W/m2
05:23 16.6 °C 15.1 °C 1005.1 hPa WNW 3.2 km/h 6.4 km/h 91% 0.0 mm 0 W/m2
05:28 16.7 °C 15.2 °C 1005.1 hPa West 3.2 km/h 3.2 km/h 91% 0.0 mm 0 W/m2
05:33 16.7 °C 15.1 °C 1005.1 hPa SSW 1.4 km/h 6.4 km/h 90% 0.0 mm 0 W/m2
05:38 16.7 °C 15.1 °C 1004.7 hPa Calm   3.2 km/h 90% 0.0 mm 0 W/m2
05:43 16.6 °C 15 °C 1005.1 hPa Calm   1.6 km/h 90% 0.0 mm 0 W/m2
05:48 16.4 °C 14.8 °C 1005.1 hPa Calm     90% 0.0 mm 0 W/m2
05:54 16.3 °C 14.8 °C 1004.7 hPa SSW 1.4 km/h 1.6 km/h 91% 0.0 mm 0 W/m2
05:59 16.1 °C 14.6 °C 1004.7 hPa SSW 1.4 km/h 1.6 km/h 91% 0.0 mm 0 W/m2
06:04 15.9 °C 14.4 °C 1004.7 hPa Calm     91% 0.0 mm 0 W/m2
06:09 15.8 °C 14.3 °C 1004.7 hPa Calm     91% 0.0 mm 0 W/m2
06:14 15.7 °C 14.4 °C 1004.7 hPa West 1.4 km/h 11.3 km/h 92% 0.0 mm 0 W/m2
06:19 15.8 °C 14.5 °C 1004.7 hPa WSW 3.2 km/h 12.9 km/h 92% 0.0 mm 0 W/m2
06:24 15.8 °C 14.3 °C 1004.7 hPa WSW 3.2 km/h 6.4 km/h 91% 0.0 mm 0 W/m2
06:29 15.8 °C 14.2 °C 1004.7 hPa Calm   1.6 km/h 90% 0.0 mm 0 W/m2
06:34 15.8 °C 14.2 °C 1004.7 hPa Calm   6.4 km/h 90% 0.0 mm 0 W/m2
06:39 15.7 °C 14.1 °C 1004.7 hPa Calm   1.6 km/h 90% 0.0 mm 0 W/m2
06:44 15.5 °C 13.9 °C 1005.1 hPa Calm     90% 0.0 mm 0 W/m2
06:49 15.3 °C 13.8 °C 1004.7 hPa SSW 1.4 km/h 3.2 km/h 91% 0.0 mm 0 W/m2
06:54 15.2 °C 13.7 °C 1004.7 hPa Calm     91% 0.0 mm 5 W/m2
06:59 15.1 °C 13.8 °C 1004.7 hPa Calm   1.6 km/h 92% 0.0 mm 7 W/m2
07:04 15.1 °C 13.8 °C 1004.7 hPa Calm   3.2 km/h 92% 0.0 mm 9 W/m2
07:09 15.1 °C 13.8 °C 1004.7 hPa East 1.4 km/h 1.6 km/h 92% 0.0 mm 9 W/m2
07:14 15.1 °C 13.8 °C 1004.7 hPa Calm   4.8 km/h 92% 0.0 mm 11 W/m2
07:19 15.1 °C 13.8 °C 1004.7 hPa Calm   1.6 km/h 92% 0.0 mm 12 W/m2
07:24 15.1 °C 13.8 °C 1004.7 hPa Calm   4.8 km/h 92% 0.0 mm 18 W/m2
07:29 15.1 °C 13.6 °C 1004.7 hPa Calm     91% 0.0 mm 19 W/m2
07:34 15.2 °C 13.9 °C 1004.4 hPa Calm   3.2 km/h 92% 0.0 mm 26 W/m2
07:39 15.3 °C 14 °C 1004.4 hPa West 1.4 km/h 1.6 km/h 92% 0.0 mm 39 W/m2
07:45 15.4 °C 13.9 °C 1004.7 hPa ESE 4.7 km/h 9.7 km/h 91% 0.0 mm 54 W/m2
07:50 15.6 °C 14.1 °C 1004.7 hPa ENE 1.4 km/h 3.2 km/h 91% 0.0 mm 60 W/m2
07:55 15.8 °C 14 °C 1004.7 hPa Calm   9.7 km/h 89% 0.0 mm 65 W/m2
08:00 15.9 °C 13.9 °C 1004.7 hPa North 1.4 km/h 1.6 km/h 88% 0.0 mm 70 W/m2
08:05 16 °C 14 °C 1004.4 hPa NW 1.4 km/h 3.2 km/h 88% 0.0 mm 49 W/m2
08:10 16.1 °C 13.9 °C 1004.4 hPa Calm     87% 0.0 mm 49 W/m2
08:15 16.1 °C 13.8 °C 1004.4 hPa WNW 1.4 km/h 3.2 km/h 86% 0.0 mm 58 W/m2
08:20 16.2 °C 13.9 °C 1004.4 hPa SSW 1.4 km/h 3.2 km/h 86% 0.0 mm 81 W/m2
08:25 16.3 °C 13.8 °C 1004.4 hPa Calm   3.2 km/h 85% 0.0 mm 165 W/m2
08:30 16.5 °C 14 °C 1004.4 hPa NW 1.4 km/h 3.2 km/h 85% 0.0 mm 114 W/m2
08:35 16.6 °C 13.9 °C 1004.7 hPa Calm   1.6 km/h 84% 0.0 mm 84 W/m2
08:40 16.7 °C 13.8 °C 1004.7 hPa West 1.4 km/h 4.8 km/h 83% 0.0 mm 65 W/m2
08:45 16.8 °C 13.7 °C 1004.7 hPa NNW 1.4 km/h 11.3 km/h 82% 0.0 mm 114 W/m2
08:50 16.8 °C 13.7 °C 1004.7 hPa North 1.4 km/h 3.2 km/h 82% 0.0 mm 255 W/m2
08:55 17.1 °C 14 °C 1004.7 hPa NW 1.4 km/h 11.3 km/h 82% 0.0 mm 262 W/m2
09:00 17.2 °C 13.7 °C 1004.7 hPa WSW 3.2 km/h 6.4 km/h 80% 0.0 mm 116 W/m2
09:05 17.2 °C 13.5 °C 1004.4 hPa NW 4.7 km/h 8 km/h 79% 0.0 mm 105 W/m2
09:10 17.2 °C 13.5 °C 1004.1 hPa Calm   1.6 km/h 79% 0.0 mm 72 W/m2
09:16 17.2 °C 13.5 °C 1004.4 hPa WNW 4.7 km/h 4.8 km/h 79% 0.0 mm 60 W/m2
09:21 17.2 °C 13.5 °C 1004.7 hPa NNW 3.2 km/h 6.4 km/h 79% 0.0 mm 135 W/m2
09:26 17.3 °C 13.4 °C 1004.4 hPa West 3.2 km/h 4.8 km/h 78% 0.0 mm 88 W/m2
09:31 17.3 °C 13.4 °C 1003.7 hPa Calm   1.6 km/h 78% 0.0 mm 81 W/m2
09:36 17.3 °C 13.2 °C 1003.0 hPa Calm   4.8 km/h 77% 0.0 mm 176 W/m2
09:41 17.4 °C 13.3 °C 1003.4 hPa Calm     77% 0.0 mm 105 W/m2
09:46 17.7 °C 13.4 °C 1004.1 hPa West 4.7 km/h 4.8 km/h 76% 0.0 mm 88 W/m2
09:51 17.8 °C 13.5 °C 1004.1 hPa WNW 3.2 km/h 3.2 km/h 76% 0.0 mm 137 W/m2
09:56 17.9 °C 13.6 °C 1004.1 hPa East 3.2 km/h 4.8 km/h 76% 0.0 mm 149 W/m2
10:01 18 °C 13.5 °C 1004.4 hPa NW 4.7 km/h 4.8 km/h 75% 0.0 mm 130 W/m2
10:06 17.9 °C 13.6 °C 1004.1 hPa NE 3.2 km/h 3.2 km/h 76% 0.0 mm 97 W/m2
10:11 17.9 °C 13.6 °C 1004.1 hPa ESE 3.2 km/h 4.8 km/h 76% 0.0 mm 225 W/m2
10:16 17.9 °C 14 °C 1003.7 hPa Calm   4.8 km/h 78% 0.0 mm 197 W/m2
10:21 17.9 °C 13.8 °C 1003.7 hPa WNW 4.7 km/h 4.8 km/h 77% 0.0 mm 134 W/m2
10:26 18 °C 14.1 °C 1003.7 hPa NNW 1.4 km/h 3.2 km/h 78% 0.0 mm 606 W/m2
10:31 18.2 °C 14.5 °C 1003.4 hPa NW 3.2 km/h 9.7 km/h 79% 0.0 mm 606 W/m2
10:36 18.4 °C 14.7 °C 1003.4 hPa WNW 6.4 km/h 8 km/h 79% 0.0 mm 708 W/m2
10:41 18.7 °C 14.8 °C 1003.4 hPa West 1.4 km/h 6.4 km/h 78% 0.0 mm 434 W/m2
10:46 18.8 °C 14.5 °C 1003.4 hPa West 9.7 km/h 9.7 km/h 76% 0.0 mm 121 W/m2
10:51 18.6 °C 14.1 °C 1003.4 hPa WNW 4.7 km/h 6.4 km/h 75% 0.0 mm 137 W/m2
10:56 18.6 °C 14.1 °C 1003.4 hPa North 1.4 km/h 1.6 km/h 75% 0.0 mm 195 W/m2
11:01 18.6 °C 14.1 °C 1003.4 hPa East 11.1 km/h 12.9 km/h 75% 0.0 mm 153 W/m2
11:06 18.6 °C 13.5 °C 1003.0 hPa NW 7.9 km/h 9.7 km/h 72% 0.0 mm 255 W/m2
11:11 18.6 °C 13 °C 1003.0 hPa West 1.4 km/h 12.9 km/h 70% 0.0 mm 225 W/m2
11:16 18.9 °C 13.3 °C 1003.0 hPa West 4.7 km/h 9.7 km/h 70% 0.0 mm 248 W/m2
11:21 19.2 °C 13.6 °C 1003.0 hPa West 13 km/h 12.9 km/h 70% 0.0 mm 229 W/m2
11:26 19.3 °C 13.7 °C 1003.0 hPa NNW 3.2 km/h 4.8 km/h 70% 0.0 mm 195 W/m2
11:31 19.3 °C 13.2 °C 1003.0 hPa NW 7.9 km/h 8 km/h 68% 0.0 mm 188 W/m2
11:36 19.3 °C 12.8 °C 1003.0 hPa WNW 3.2 km/h 4.8 km/h 66% 0.0 mm 297 W/m2
11:41 19.5 °C 12.7 °C 1002.7 hPa WSW 1.4 km/h 4.8 km/h 65% 0.0 mm 366 W/m2
11:46 19.8 °C 13.3 °C 1002.7 hPa WNW 3.2 km/h 4.8 km/h 66% 0.0 mm 631 W/m2
11:51 19.9 °C 13.1 °C 1002.7 hPa North 3.2 km/h 11.3 km/h 65% 0.0 mm 394 W/m2
11:56 20.1 °C 12.8 °C 1002.7 hPa NW 6.4 km/h 12.9 km/h 63% 0.0 mm 417 W/m2
12:01 19.9 °C 12.4 °C 1002.7 hPa WNW 6.4 km/h 14.5 km/h 62% 0.0 mm 269 W/m2
12:06 19.8 °C 12.6 °C 1003.0 hPa NW 1.4 km/h 6.4 km/h 63% 0.0 mm 313 W/m2
12:11 20.1 °C 12.6 °C 1002.7 hPa West 4.7 km/h 16.1 km/h 62% 0.0 mm 274 W/m2
12:16 20.1 °C 12.3 °C 1002.7 hPa North 3.2 km/h 11.3 km/h 61% 0.0 mm 380 W/m2
12:21 20.2 °C 12.4 °C 1002.7 hPa NW 1.4 km/h 11.3 km/h 61% 0.0 mm 394 W/m2
12:26 20.2 °C 12.2 °C 1002.7 hPa NNW 3.2 km/h 12.9 km/h 60% 0.0 mm 322 W/m2
12:31 20.2 °C 12.2 °C 1002.7 hPa NNW 9.7 km/h 11.3 km/h 60% 0.0 mm 315 W/m2
12:36 20.2 °C 12.2 °C 1002.7 hPa NW 1.4 km/h 6.4 km/h 60% 0.0 mm 346 W/m2
12:41 20.2 °C 12.2 °C 1002.7 hPa NW 1.4 km/h 9.7 km/h 60% 0.0 mm 348 W/m2
12:46 20.2 °C 12.2 °C 1002.7 hPa NNW 3.2 km/h 9.7 km/h 60% 0.0 mm 339 W/m2
12:51 20.2 °C 11.4 °C 1002.7 hPa Calm   11.3 km/h 57% 0.0 mm 352 W/m2
12:56 20.3 °C 11.5 °C 1002.7 hPa WSW 3.2 km/h 6.4 km/h 57% 0.0 mm 387 W/m2
13:01 20.3 °C 11.5 °C 1002.4 hPa NNW 6.4 km/h 11.3 km/h 57% 0.0 mm 359 W/m2
13:06 20.3 °C 11.5 °C 1002.4 hPa West 3.2 km/h 8 km/h 57% 0.0 mm 339 W/m2
13:11 20.4 °C 11.9 °C 1002.7 hPa NNW 6.4 km/h 6.4 km/h 58% 0.0 mm 322 W/m2
13:16 20.3 °C 11 °C 1002.4 hPa NW 4.7 km/h 17.7 km/h 55% 0.0 mm 311 W/m2
13:21 20.2 °C 11.1 °C 1002.4 hPa South 3.2 km/h 16.1 km/h 56% 0.0 mm 316 W/m2
13:26 20.2 °C 11.4 °C 1002.4 hPa WSW 9.7 km/h 16.1 km/h 57% 0.0 mm 315 W/m2
13:31 20.2 °C 11.1 °C 1002.4 hPa WSW 9.7 km/h 9.7 km/h 56% 0.0 mm 311 W/m2
13:36 20.2 °C 10.9 °C 1002.4 hPa NW 4.7 km/h 8 km/h 55% 0.0 mm 301 W/m2
13:41 20.3 °C 11 °C 1002.4 hPa NW 1.4 km/h 16.1 km/h 55% 0.0 mm 309 W/m2
13:46 20.2 °C 11.1 °C 1002.4 hPa NW 3.2 km/h 6.4 km/h 56% 0.0 mm 272 W/m2
13:51 20.1 °C 11.3 °C 1002.4 hPa WNW 6.4 km/h 16.1 km/h 57% 0.0 mm 264 W/m2
13:56 19.9 °C 11.4 °C 1002.4 hPa SW 7.9 km/h 12.9 km/h 58% 0.0 mm 276 W/m2
14:01 19.9 °C 11.6 °C 1002.4 hPa West 6.4 km/h 6.4 km/h 59% 0.0 mm 276 W/m2
14:06 20.1 °C 11.8 °C 1002.7 hPa WSW 9.7 km/h 12.9 km/h 59% 0.0 mm 253 W/m2
14:11 20 °C 11.7 °C 1002.4 hPa West 3.2 km/h 9.7 km/h 59% 0.0 mm 383 W/m2
14:16 20 °C 11.7 °C 1002.7 hPa SW 3.2 km/h 9.7 km/h 59% 0.0 mm 364 W/m2
14:21 20 °C 11.5 °C 1002.4 hPa West 13 km/h 12.9 km/h 58% 0.0 mm 350 W/m2
14:26 19.9 °C 10.9 °C 1002.4 hPa WNW 6.4 km/h 8 km/h 56% 0.0 mm 359 W/m2
14:31 19.8 °C 10.8 °C 1002.4 hPa North 4.7 km/h 24.1 km/h 56% 0.0 mm 410 W/m2
14:36 19.8 °C 10.8 °C 1002.4 hPa WNW 6.4 km/h 11.3 km/h 56% 0.0 mm 390 W/m2
14:41 20 °C 10.4 °C 1002.4 hPa West 19.5 km/h 20.9 km/h 54% 0.0 mm 406 W/m2
14:47 19.9 °C 10.9 °C 1002.4 hPa SSW 3.2 km/h 6.4 km/h 56% 0.0 mm 346 W/m2
14:52 20.1 °C 10.5 °C 1002.7 hPa West 16.3 km/h 20.9 km/h 54% 0.0 mm 381 W/m2
14:57 20 °C 10.4 °C 1002.7 hPa West 6.4 km/h 9.7 km/h 54% 0.0 mm 360 W/m2
15:02 20.1 °C 10.8 °C 1002.4 hPa WNW 3.2 km/h 19.3 km/h 55% 0.0 mm 489 W/m2
15:07 20.1 °C 10.8 °C 1002.4 hPa West 9.7 km/h 14.5 km/h 55% 0.0 mm 316 W/m2
15:12 20 °C 11 °C 1002.4 hPa West 14.3 km/h 17.7 km/h 56% 0.0 mm 320 W/m2
15:17 20.1 °C 11 °C 1002.4 hPa NNW 6.4 km/h 25.7 km/h 56% 0.0 mm 323 W/m2
15:22 20 °C 11 °C 1002.4 hPa West 6.4 km/h 6.4 km/h 56% 0.0 mm 411 W/m2
15:27 20.1 °C 11 °C 1002.4 hPa West 6.4 km/h 20.9 km/h 56% 0.0 mm 450 W/m2
15:32 20.1 °C 11 °C 1002.4 hPa NW 13 km/h 17.7 km/h 56% 0.0 mm 315 W/m2
15:37 20.2 °C 11.4 °C 1002.4 hPa West 4.7 km/h 9.7 km/h 57% 0.0 mm 357 W/m2
15:42 20.3 °C 11.2 °C 1002.0 hPa West 6.4 km/h 11.3 km/h 56% 0.0 mm 366 W/m2
15:47 20.5 °C 11.1 °C 1002.0 hPa NW 3.2 km/h 9.7 km/h 55% 0.0 mm 315 W/m2
15:52 20.7 °C 11.6 °C 1002.0 hPa WNW 7.9 km/h 8 km/h 56% 0.0 mm 490 W/m2
15:57 20.8 °C 11.2 °C 1002.0 hPa NW 1.4 km/h 8 km/h 54% 0.0 mm 501 W/m2
16:02 20.7 °C 11.1 °C 1002.0 hPa Calm   4.8 km/h 54% 0.0 mm 353 W/m2
16:08 20.7 °C 11.1 °C 1002.0 hPa SW 7.9 km/h 17.7 km/h 54% 0.0 mm 374 W/m2
16:13 20.7 °C 11.3 °C 1002.0 hPa NW 4.7 km/h 11.3 km/h 55% 0.0 mm 348 W/m2
16:18 20.9 °C 11.5 °C 1002.0 hPa NW 4.7 km/h 17.7 km/h 55% 0.0 mm 480 W/m2
16:23 20.9 °C 11.8 °C 1002.0 hPa NNW 1.4 km/h 4.8 km/h 56% 0.0 mm 338 W/m2
16:28 20.9 °C 11 °C 1001.7 hPa WNW 3.2 km/h 20.9 km/h 53% 0.0 mm 295 W/m2
16:33 20.8 °C 11.2 °C 1002.0 hPa NNW 4.7 km/h 8 km/h 54% 0.0 mm 320 W/m2
16:38 20.8 °C 10.9 °C 1002.0 hPa SE 6.4 km/h 16.1 km/h 53% 0.0 mm 285 W/m2
16:43 20.8 °C 11.2 °C 1001.7 hPa WNW 3.2 km/h 6.4 km/h 54% 0.0 mm 297 W/m2
16:48 20.9 °C 11 °C 1001.7 hPa NW 3.2 km/h 12.9 km/h 53% 0.0 mm 318 W/m2
16:53 21.1 °C 11.1 °C 1001.7 hPa ENE 1.4 km/h 6.4 km/h 53% 0.0 mm 570 W/m2
16:58 21.3 °C 11.3 °C 1001.7 hPa WNW 3.2 km/h 11.3 km/h 53% 0.0 mm 471 W/m2
17:03 21.4 °C 11.1 °C 1001.4 hPa NW 3.2 km/h 14.5 km/h 52% 0.0 mm 306 W/m2
17:08 21.4 °C 11.4 °C 1001.4 hPa WNW 4.7 km/h 9.7 km/h 53% 0.0 mm 171 W/m2
17:13 21.4 °C 11.1 °C 1001.4 hPa West 3.2 km/h 14.5 km/h 52% 0.0 mm 151 W/m2
17:18 21.2 °C 11 °C 1001.4 hPa North 3.2 km/h 4.8 km/h 52% 0.0 mm 146 W/m2
17:23 21.2 °C 11 °C 1001.4 hPa NW 3.2 km/h 11.3 km/h 52% 0.0 mm 190 W/m2
17:28 21.2 °C 11.2 °C 1001.4 hPa West 6.4 km/h 6.4 km/h 53% 0.0 mm 165 W/m2
17:33 21.2 °C 11 °C 1001.4 hPa NW 6.4 km/h 11.3 km/h 52% 0.0 mm 490 W/m2
17:38 21.3 °C 11.3 °C 1001.4 hPa Calm   12.9 km/h 53% 0.0 mm 148 W/m2
17:43 21.3 °C 11 °C 1001.0 hPa NNE 1.4 km/h 6.4 km/h 52% 0.0 mm 200 W/m2
17:48 21.2 °C 11 °C 1001.0 hPa WNW 6.4 km/h 12.9 km/h 52% 0.0 mm 95 W/m2
17:53 21 °C 11.1 °C 1001.0 hPa ENE 1.4 km/h 8 km/h 53% 0.0 mm 88 W/m2
17:58 20.9 °C 11 °C 1001.0 hPa WNW 4.7 km/h 9.7 km/h 53% 0.0 mm 86 W/m2
18:03 20.8 °C 10.9 °C 1001.0 hPa WNW 4.7 km/h 6.4 km/h 53% 0.0 mm 111 W/m2
18:08 20.8 °C 11.2 °C 1001.0 hPa NNW 1.4 km/h 8 km/h 54% 0.0 mm 111 W/m2
18:13 20.8 °C 11.2 °C 1001.0 hPa NW 3.2 km/h 4.8 km/h 54% 0.0 mm 83 W/m2
18:18 20.8 °C 11.2 °C 1001.0 hPa WNW 6.4 km/h 6.4 km/h 54% 0.0 mm 88 W/m2
18:23 20.7 °C 11.1 °C 1001.0 hPa NW 3.2 km/h 8 km/h 54% 0.0 mm 98 W/m2
18:28 20.7 °C 11.3 °C 1000.7 hPa Calm   3.2 km/h 55% 0.0 mm 79 W/m2
18:33 20.7 °C 11.1 °C 1000.7 hPa West 6.4 km/h 11.3 km/h 54% 0.0 mm 104 W/m2
18:38 20.7 °C 11.1 °C 1000.7 hPa NW 4.7 km/h 6.4 km/h 54% 0.0 mm 47 W/m2
18:43 20.7 °C 11.3 °C 1001.4 hPa WSW 14.5 km/h 14.5 km/h 55% 0.0 mm 39 W/m2
18:48 20.2 °C 9.7 °C 1001.4 hPa WNW 13 km/h 17.7 km/h 51% 0.0 mm 42 W/m2
18:53 19.4 °C 10.1 °C 1001.4 hPa West 11.1 km/h 16.1 km/h 55% 0.0 mm 65 W/m2
18:58 18.8 °C 10.1 °C 1001.4 hPa WSW 11.1 km/h 16.1 km/h 57% 0.0 mm 90 W/m2
19:03 18.3 °C 10.6 °C 1001.4 hPa West 9.7 km/h 17.7 km/h 61% 0.0 mm 148 W/m2
19:08 17.9 °C 11 °C 1001.4 hPa West 4.7 km/h 8 km/h 64% 0.0 mm 69 W/m2
19:13 17.7 °C 10.8 °C 1001.4 hPa NW 4.7 km/h 17.7 km/h 64% 0.0 mm 70 W/m2
19:18 17.6 °C 11.2 °C 1001.0 hPa NW 4.7 km/h 6.4 km/h 66% 0.0 mm 172 W/m2
19:23 17.7 °C 11.3 °C 1001.0 hPa NNW 3.2 km/h 8 km/h 66% 0.0 mm 155 W/m2
19:28 17.8 °C 11.4 °C 1001.0 hPa Calm   1.6 km/h 66% 0.0 mm 132 W/m2
19:33 17.9 °C 11.5 °C 1001.0 hPa NW 3.2 km/h 4.8 km/h 66% 0.0 mm 111 W/m2
19:38 18 °C 11.6 °C 1001.0 hPa WNW 1.4 km/h 4.8 km/h 66% 0.0 mm 86 W/m2
19:43 17.9 °C 11.5 °C 1001.4 hPa West 3.2 km/h 4.8 km/h 66% 0.0 mm 25 W/m2
19:48 17.8 °C 11.6 °C 1001.4 hPa West 3.2 km/h 6.4 km/h 67% 0.0 mm 21 W/m2
19:53 17.6 °C 11.6 °C 1001.0 hPa West 1.4 km/h 4.8 km/h 68% 0.0 mm 18 W/m2
19:58 17.4 °C 11.7 °C 1001.4 hPa NW 3.2 km/h 3.2 km/h 69% 0.0 mm 18 W/m2
20:03 17.2 °C 11.7 °C 1001.4 hPa WNW 1.4 km/h 3.2 km/h 70% 0.0 mm 16 W/m2
20:08 17 °C 11.7 °C 1001.4 hPa Calm   1.6 km/h 71% 0.0 mm 12 W/m2
20:13 16.9 °C 11.8 °C 1001.4 hPa Calm   6.4 km/h 72% 0.0 mm 7 W/m2
20:18 16.8 °C 11.7 °C 1001.4 hPa Calm     72% 0.0 mm 5 W/m2
20:23 16.6 °C 11.7 °C 1001.7 hPa West 1.4 km/h 1.6 km/h 73% 0.0 mm 0 W/m2
20:28 16.5 °C 11.8 °C 1001.4 hPa NNW 4.7 km/h 6.4 km/h 74% 0.0 mm 0 W/m2
20:34 16.4 °C 12 °C 1001.7 hPa Calm   1.6 km/h 75% 0.0 mm 0 W/m2
20:39 16.4 °C 12 °C 1001.7 hPa WNW 3.2 km/h 8 km/h 75% 0.0 mm 0 W/m2
20:44 16.6 °C 12.1 °C 1002.0 hPa West 6.4 km/h 12.9 km/h 75% 0.0 mm 0 W/m2
20:49 16.7 °C 12.4 °C 1002.0 hPa NNE 3.2 km/h 6.4 km/h 76% 0.0 mm 0 W/m2
20:54 16.7 °C 12.6 °C 1002.0 hPa West 4.7 km/h 12.9 km/h 77% 0.0 mm 0 W/m2
20:59 16.3 °C 12.5 °C 1002.0 hPa West 4.7 km/h 6.4 km/h 78% 0.0 mm 0 W/m2
21:04 16.1 °C 12.5 °C 1001.7 hPa West 3.2 km/h 11.3 km/h 79% 0.0 mm 0 W/m2
21:10 15.9 °C 12.3 °C 1002.0 hPa WSW 3.2 km/h 6.4 km/h 79% 0.0 mm 0 W/m2
21:15 15.8 °C 12.2 °C 1002.0 hPa West 3.2 km/h 8 km/h 79% 0.0 mm 0 W/m2
21:20 15.7 °C 12.3 °C 1002.0 hPa West 1.4 km/h 3.2 km/h 80% 0.0 mm 0 W/m2
21:25 15.7 °C 12.4 °C 1002.0 hPa Calm   4.8 km/h 81% 0.0 mm 0 W/m2
21:30 15.6 °C 12.5 °C 1002.0 hPa West 1.4 km/h 1.6 km/h 82% 0.0 mm 0 W/m2
21:35 15.4 °C 12.5 °C 1002.0 hPa Calm     83% 0.0 mm 0 W/m2
21:40 15.4 °C 12.5 °C 1002.0 hPa Calm     83% 0.0 mm 0 W/m2
21:45 15.3 °C 12.4 °C 1002.4 hPa West 1.4 km/h 3.2 km/h 83% 0.5 mm 0 W/m2
21:50 15.3 °C 12.8 °C 1002.0 hPa West 1.4 km/h 1.6 km/h 85% 1.3 mm 0 W/m2
21:55 15.1 °C 12.6 °C 1002.0 hPa Calm   3.2 km/h 85% 1.8 mm 0 W/m2
22:00 14.8 °C 12.5 °C 1002.0 hPa SSE 1.4 km/h 1.6 km/h 86% 2.3 mm 0 W/m2
22:05 14.7 °C 12.7 °C 1002.0 hPa West 1.4 km/h 4.8 km/h 88% 3.0 mm 0 W/m2
22:10 14.6 °C 12.8 °C 1002.4 hPa WSW 3.2 km/h 4.8 km/h 89% 3.3 mm 0 W/m2
22:15 14.4 °C 12.6 °C 1002.7 hPa SW 1.4 km/h 3.2 km/h 89% 4.1 mm 0 W/m2
22:20 14.4 °C 12.6 °C 1002.4 hPa SSW 3.2 km/h 6.4 km/h 89% 4.6 mm 0 W/m2
22:25 14.5 °C 12.7 °C 1002.4 hPa ENE 1.4 km/h 6.4 km/h 89% 4.6 mm 0 W/m2
22:30 14.5 °C 12.7 °C 1002.4 hPa West 1.4 km/h 3.2 km/h 89% 4.8 mm 0 W/m2
22:35 14.4 °C 12.6 °C 1002.4 hPa WSW 1.4 km/h 6.4 km/h 89% 5.1 mm 0 W/m2
22:40 14.3 °C 12.5 °C 1002.0 hPa South 1.4 km/h 1.6 km/h 89% 5.1 mm 0 W/m2
22:45 14.2 °C 12.4 °C 1002.4 hPa West 6.4 km/h 6.4 km/h 89% 4.6 mm 0 W/m2
22:50 14.1 °C 12.5 °C 1002.4 hPa Calm   1.6 km/h 90% 3.8 mm 0 W/m2
22:55 13.9 °C 12.3 °C 1002.4 hPa Calm   1.6 km/h 90% 3.3 mm 0 W/m2
23:00 13.8 °C 12.2 °C 1002.4 hPa Calm   1.6 km/h 90% 2.8 mm 0 W/m2
23:05 13.8 °C 12.4 °C 1002.4 hPa West 4.7 km/h 6.4 km/h 91% 2.0 mm 0 W/m2
23:10 13.8 °C 12.4 °C 1002.7 hPa West 1.4 km/h 4.8 km/h 91% 1.5 mm 0 W/m2
23:15 13.8 °C 12.4 °C 1002.4 hPa Calm   3.2 km/h 91% 0.8 mm 0 W/m2
23:20 13.7 °C 12.3 °C 1002.4 hPa Calm   1.6 km/h 91% 0.5 mm 0 W/m2
23:25 13.6 °C 12.2 °C 1002.4 hPa Calm     91% 0.2 mm 0 W/m2
23:30 13.4 °C 12.1 °C 1002.4 hPa Calm     92% 0.2 mm 0 W/m2
23:35 13.3 °C 11.9 °C 1002.4 hPa Calm     91% 0.0 mm 0 W/m2
23:40 13.1 °C 11.8 °C 1002.4 hPa Calm     92% 0.0 mm 0 W/m2
23:45 13 °C 11.7 °C 1002.4 hPa Calm     92% 0.0 mm 0 W/m2
23:50 12.9 °C 11.8 °C 1002.7 hPa Calm     93% 0.0 mm 0 W/m2
23:56 12.8 °C 11.7 °C 1002.4 hPa Calm   1.6 km/h 93% 0.0 mm 0 W/m2
Juneau County Weather
Compliments of Weather Underground - 4 mb